createdAt,value
2018-08-19T00:00:50.769Z,19.10
2018-08-19T00:03:19.929Z,19.00
2018-08-19T00:05:48.786Z,18.80
2018-08-19T00:08:17.903Z,18.90
2018-08-19T00:11:01.000Z,18.80
2018-08-19T00:13:29.895Z,18.80
2018-08-19T00:15:58.786Z,18.90
2018-08-19T00:18:27.799Z,18.80
2018-08-19T00:20:57.780Z,18.90
2018-08-19T00:23:30.218Z,18.90
2018-08-19T00:25:59.064Z,18.90
2018-08-19T00:28:27.940Z,18.90
2018-08-19T00:30:56.839Z,18.90
2018-08-19T00:33:25.693Z,18.90
2018-08-19T00:35:54.554Z,18.90
2018-08-19T00:38:23.460Z,18.60
2018-08-19T00:40:52.860Z,18.40
2018-08-19T00:43:21.754Z,18.40
2018-08-19T00:45:50.573Z,18.40
2018-08-19T00:48:19.890Z,18.40
2018-08-19T00:50:48.744Z,18.30
2018-08-19T00:53:17.604Z,18.20
2018-08-19T00:55:50.330Z,18.20
2018-08-19T00:58:21.796Z,18.30
2018-08-19T01:00:51.297Z,18.20
2018-08-19T01:03:20.171Z,18.20
2018-08-19T01:05:49.069Z,18.10
2018-08-19T01:08:17.899Z,18.10
2018-08-19T01:10:46.787Z,18.10
2018-08-19T01:13:15.610Z,18.00
2018-08-19T01:15:44.432Z,18.10
2018-08-19T01:18:13.298Z,18.10
2018-08-19T01:20:42.177Z,18.10
2018-08-19T01:23:11.136Z,18.10
2018-08-19T01:25:39.993Z,18.10
2018-08-19T01:28:08.896Z,18.20
2018-08-19T01:30:37.804Z,18.20
2018-08-19T01:33:06.712Z,18.30
2018-08-19T01:35:40.564Z,18.30
2018-08-19T01:38:09.419Z,18.30
2018-08-19T01:40:38.661Z,18.30
2018-08-19T01:43:07.615Z,18.30
2018-08-19T01:45:36.485Z,18.30
2018-08-19T01:48:05.421Z,18.30
2018-08-19T01:50:34.402Z,18.30
2018-08-19T01:53:03.251Z,18.10
2018-08-19T01:55:32.088Z,18.20
2018-08-19T01:58:00.962Z,18.20
2018-08-19T02:00:29.791Z,18.20
2018-08-19T02:03:04.692Z,18.20
2018-08-19T02:05:33.566Z,18.10
2018-08-19T02:08:03.519Z,18.10
2018-08-19T02:10:33.932Z,18.10
2018-08-19T02:13:03.112Z,17.90
2018-08-19T02:15:32.760Z,17.90
2018-08-19T02:18:06.239Z,17.90
2018-08-19T02:20:40.145Z,17.90
2018-08-19T02:23:10.710Z,17.90
2018-08-19T02:25:46.464Z,17.80
2018-08-19T02:28:20.015Z,17.80
2018-08-19T02:30:54.241Z,17.90
2018-08-19T02:33:24.028Z,17.80
2018-08-19T02:35:58.224Z,17.80
2018-08-19T02:38:27.099Z,17.70
2018-08-19T02:40:55.936Z,17.50
2018-08-19T02:43:24.817Z,17.60
2018-08-19T02:45:53.779Z,17.60
2018-08-19T02:48:43.854Z,17.70
2018-08-19T02:51:14.003Z,17.70
2018-08-19T02:53:44.139Z,17.70
2018-08-19T02:56:13.761Z,17.70
2018-08-19T02:58:43.471Z,17.70
2018-08-19T03:01:13.314Z,17.70
2018-08-19T03:03:42.340Z,17.80
2018-08-19T03:06:11.348Z,17.70
2018-08-19T03:08:49.970Z,17.60
2018-08-19T03:11:20.611Z,17.50
2018-08-19T03:13:49.698Z,17.50
2018-08-19T03:16:18.512Z,17.50
2018-08-19T03:18:49.934Z,17.40
2018-08-19T03:21:19.102Z,17.40
2018-08-19T03:23:50.570Z,17.30
2018-08-19T03:26:19.426Z,17.40
2018-08-19T03:28:48.275Z,17.30
2018-08-19T03:31:17.140Z,17.40
2018-08-19T03:33:46.043Z,17.30
2018-08-19T03:36:14.925Z,17.30
2018-08-19T03:38:43.809Z,17.30
2018-08-19T03:41:12.668Z,17.40
2018-08-19T03:43:48.073Z,17.40
2018-08-19T03:46:20.745Z,17.40
2018-08-19T03:48:50.100Z,17.50
2018-08-19T03:51:18.947Z,17.50
2018-08-19T03:53:47.849Z,17.50
2018-08-19T03:56:22.106Z,17.60
2018-08-19T03:58:52.043Z,17.60
2018-08-19T04:01:41.180Z,17.60
2018-08-19T04:04:10.896Z,17.60
2018-08-19T04:06:40.564Z,17.60
2018-08-19T04:09:09.501Z,17.50
2018-08-19T04:11:38.553Z,17.50
2018-08-19T04:14:30.251Z,17.60
2018-08-19T04:17:00.601Z,17.70
2018-08-19T04:19:30.003Z,17.80
2018-08-19T04:22:00.732Z,17.90
2018-08-19T04:24:30.268Z,18.10
2018-08-19T04:26:59.841Z,18.20
2018-08-19T04:29:29.255Z,18.30
2018-08-19T04:31:58.152Z,18.40
2018-08-19T04:34:26.994Z,18.50
2018-08-19T04:36:55.839Z,18.60
2018-08-19T04:39:24.745Z,18.60
2018-08-19T04:41:53.543Z,18.70
2018-08-19T04:44:22.461Z,18.80
2018-08-19T04:46:51.344Z,18.90
2018-08-19T04:49:20.250Z,19.10
2018-08-19T04:51:49.147Z,19.10
2018-08-19T04:54:18.012Z,19.10
2018-08-19T04:56:47.488Z,19.30
2018-08-19T04:59:16.411Z,19.40
2018-08-19T05:01:46.703Z,19.60
2018-08-19T05:04:15.602Z,19.70
2018-08-19T05:06:44.407Z,19.80
2018-08-19T05:09:13.248Z,19.90
2018-08-19T05:11:42.115Z,20.10
2018-08-19T05:14:10.973Z,19.90
2018-08-19T05:16:39.842Z,20.00
2018-08-19T05:19:08.709Z,20.10
2018-08-19T05:21:37.549Z,20.20
2018-08-19T05:24:06.408Z,20.40
2018-08-19T05:26:35.272Z,20.30
2018-08-19T05:29:09.544Z,20.60
2018-08-19T05:31:42.003Z,20.80
2018-08-19T05:34:17.948Z,20.70
2018-08-19T05:36:50.074Z,20.80
2018-08-19T05:39:19.200Z,20.90
2018-08-19T05:42:02.339Z,20.80
2018-08-19T05:44:33.359Z,20.80
2018-08-19T05:47:04.751Z,20.90
2018-08-19T05:49:35.487Z,21.00
2018-08-19T05:52:09.620Z,21.00
2018-08-19T05:54:43.838Z,21.00
2018-08-19T05:57:13.121Z,21.10
2018-08-19T05:59:41.959Z,21.10
2018-08-19T06:02:10.808Z,21.20
2018-08-19T06:04:39.737Z,21.00
2018-08-19T06:07:08.570Z,21.10
2018-08-19T06:09:37.463Z,21.00
2018-08-19T06:12:06.291Z,21.10
2018-08-19T06:14:35.164Z,21.40
2018-08-19T06:17:05.168Z,21.60
2018-08-19T06:19:34.516Z,21.80
2018-08-19T06:22:03.446Z,22.00
2018-08-19T06:24:32.329Z,22.10
2018-08-19T06:27:01.220Z,22.30
2018-08-19T06:29:48.498Z,22.40
2018-08-19T06:32:25.968Z,22.50
2018-08-19T06:34:55.026Z,22.60
2018-08-19T06:37:23.746Z,22.70
2018-08-19T06:39:53.169Z,22.60
2018-08-19T06:42:22.679Z,22.80
2018-08-19T06:44:51.802Z,22.90
2018-08-19T06:47:20.637Z,23.10
2018-08-19T06:49:56.023Z,23.10
2018-08-19T06:52:25.454Z,23.20
2018-08-19T06:54:54.612Z,23.40
2018-08-19T06:57:24.617Z,23.60
2018-08-19T06:59:53.483Z,23.60
2018-08-19T07:02:23.506Z,23.60
2018-08-19T07:04:52.363Z,23.40
2018-08-19T07:07:21.476Z,22.80
2018-08-19T07:09:54.146Z,23.00
2018-08-19T07:12:23.640Z,23.10
2018-08-19T07:14:52.502Z,23.40
2018-08-19T07:17:21.376Z,23.60
2018-08-19T07:19:50.223Z,23.80
2018-08-19T07:22:21.355Z,23.90
2018-08-19T07:24:50.209Z,24.10
2018-08-19T07:27:19.192Z,24.20
2018-08-19T07:29:48.070Z,24.30
2018-08-19T07:32:16.946Z,24.30
2018-08-19T07:34:45.804Z,24.30
2018-08-19T07:37:14.747Z,24.30
2018-08-19T07:39:49.000Z,24.20
2018-08-19T07:42:17.886Z,24.20
2018-08-19T07:44:48.619Z,24.30
2018-08-19T07:47:17.554Z,24.30
2018-08-19T07:49:46.510Z,24.20
2018-08-19T07:52:15.388Z,24.30
2018-08-19T07:54:44.340Z,24.40
2018-08-19T07:57:23.447Z,24.50
2018-08-19T07:59:52.306Z,24.30
2018-08-19T08:02:24.725Z,24.30
2018-08-19T08:04:53.912Z,24.40
2018-08-19T08:07:22.743Z,24.50
2018-08-19T08:09:51.633Z,24.80
2018-08-19T08:12:20.496Z,24.80
2018-08-19T08:14:51.192Z,24.80
2018-08-19T08:17:20.470Z,25.00
2018-08-19T08:20:07.917Z,25.20
2018-08-19T08:22:38.045Z,25.40
2018-08-19T08:25:10.696Z,25.40
2018-08-19T08:27:39.490Z,25.30
2018-08-19T08:30:11.407Z,25.00
2018-08-19T08:32:41.073Z,25.00
2018-08-19T08:35:10.162Z,25.20
2018-08-19T08:37:41.523Z,25.40
2018-08-19T08:40:11.234Z,25.50
2018-08-19T08:42:42.357Z,25.60
2018-08-19T08:45:12.627Z,25.40
2018-08-19T08:47:41.745Z,25.80
2018-08-19T08:50:12.135Z,26.00
2018-08-19T08:52:43.596Z,26.20
2018-08-19T08:55:15.579Z,26.30
2018-08-19T08:57:44.490Z,26.40
2018-08-19T09:00:14.353Z,26.60
2018-08-19T09:02:43.225Z,26.90
2018-08-19T09:05:13.789Z,26.80
2018-08-19T09:07:42.717Z,26.70
2018-08-19T09:10:13.626Z,27.00
2018-08-19T09:12:47.160Z,27.10
2018-08-19T09:15:16.028Z,27.10
2018-08-19T09:17:44.951Z,27.20
2018-08-19T09:20:13.971Z,27.30
2018-08-19T09:22:43.554Z,27.40
2018-08-19T09:25:12.648Z,27.10
2018-08-19T09:27:42.120Z,27.20
2018-08-19T09:30:16.985Z,27.20
2018-08-19T09:32:59.061Z,27.20
2018-08-19T09:35:29.392Z,27.30
2018-08-19T09:38:03.625Z,27.50
2018-08-19T09:40:33.201Z,27.10
2018-08-19T09:43:02.068Z,27.40
2018-08-19T09:45:31.417Z,27.60
2018-08-19T09:48:00.680Z,27.90
2018-08-19T09:50:29.646Z,28.10
2018-08-19T09:52:58.487Z,27.80
2018-08-19T09:55:45.186Z,27.60
2018-08-19T09:58:18.328Z,27.70
2018-08-19T10:00:52.636Z,27.70
2018-08-19T10:03:21.462Z,27.90
2018-08-19T10:05:50.279Z,28.20
2018-08-19T10:08:21.891Z,28.20
2018-08-19T10:10:51.573Z,28.50
2018-08-19T10:13:20.457Z,28.80
2018-08-19T10:15:49.372Z,29.10
2018-08-19T10:18:18.211Z,29.10
2018-08-19T10:20:47.101Z,29.30
2018-08-19T10:23:15.976Z,29.70
2018-08-19T10:25:44.841Z,30.00
2018-08-19T10:28:13.711Z,30.30
2018-08-19T10:30:50.622Z,30.60
2018-08-19T10:33:21.359Z,30.80
2018-08-19T10:35:50.280Z,30.50
2018-08-19T10:38:19.139Z,30.40
2018-08-19T10:40:57.091Z,30.80
2018-08-19T10:43:28.356Z,29.70
2018-08-19T10:45:57.164Z,28.90
2018-08-19T10:48:25.995Z,29.50
2018-08-19T10:50:54.914Z,29.70
2018-08-19T10:53:26.872Z,29.70
2018-08-19T10:55:59.095Z,30.10
2018-08-19T10:58:27.982Z,30.60
2018-08-19T11:00:56.800Z,30.90
2018-08-19T11:03:25.693Z,31.60
2018-08-19T11:05:55.809Z,32.20
2018-08-19T11:08:24.668Z,32.40
2018-08-19T11:10:53.572Z,32.70
2018-08-19T11:13:24.009Z,32.60
2018-08-19T11:15:54.887Z,32.90
2018-08-19T11:18:42.476Z,32.60
2018-08-19T11:21:14.745Z,32.10
2018-08-19T11:23:44.997Z,32.80
2018-08-19T11:26:14.317Z,33.20
2018-08-19T11:28:47.865Z,32.80
2018-08-19T11:31:23.766Z,33.20
2018-08-19T11:33:54.076Z,34.10
2018-08-19T11:36:31.108Z,34.70
2018-08-19T11:38:59.982Z,35.50
2018-08-19T11:41:31.417Z,35.20
2018-08-19T11:44:05.486Z,35.60
2018-08-19T11:46:34.316Z,36.90
2018-08-19T11:49:09.743Z,37.40
2018-08-19T11:51:49.448Z,37.40
2018-08-19T11:54:19.314Z,38.00
2018-08-19T11:56:56.660Z,38.80
2018-08-19T11:59:31.026Z,38.70
2018-08-19T12:02:00.030Z,39.10
2018-08-19T12:04:28.856Z,39.80
2018-08-19T12:06:57.877Z,40.80
2018-08-19T12:09:26.720Z,42.00
2018-08-19T12:11:55.589Z,43.30
2018-08-19T12:14:24.467Z,43.80
2018-08-19T12:16:57.614Z,43.10
2018-08-19T12:19:27.649Z,42.50
2018-08-19T12:22:01.751Z,44.00
2018-08-19T12:24:38.254Z,44.50
2018-08-19T12:27:08.938Z,44.20
2018-08-19T12:29:38.819Z,43.90
2018-08-19T12:32:17.413Z,42.70
2018-08-19T12:34:49.265Z,44.00
2018-08-19T12:37:19.285Z,44.40
2018-08-19T12:39:48.436Z,45.00
2018-08-19T12:42:17.264Z,44.90
2018-08-19T12:44:49.914Z,44.30
2018-08-19T12:47:26.059Z,45.60
2018-08-19T12:49:56.354Z,45.60
2018-08-19T12:55:01.730Z,46.30
2018-08-19T12:57:30.679Z,48.30
2018-08-19T13:00:07.266Z,47.70
2018-08-19T13:02:43.125Z,47.70
2018-08-19T13:05:12.590Z,48.50
2018-08-19T13:07:41.436Z,46.60
2018-08-19T13:10:10.346Z,47.30
2018-08-19T13:12:48.256Z,48.40
2018-08-19T13:15:17.168Z,48.70
2018-08-19T13:17:45.963Z,46.80
2018-08-19T13:20:14.995Z,44.10
2018-08-19T13:22:50.896Z,44.40
2018-08-19T13:25:21.284Z,46.20
2018-08-19T13:27:50.233Z,48.80
2018-08-19T13:30:20.005Z,49.10
2018-08-19T13:32:49.659Z,48.80
2018-08-19T13:35:18.876Z,47.80
2018-08-19T13:37:47.863Z,49.60
2018-08-19T13:40:17.527Z,49.40
2018-08-19T13:42:46.320Z,47.80
2018-08-19T13:45:16.474Z,47.50
2018-08-19T13:47:47.919Z,45.70
2018-08-19T13:50:16.834Z,45.40
2018-08-19T13:52:46.865Z,46.40
2018-08-19T13:55:18.106Z,46.90
2018-08-19T13:57:46.924Z,47.70
2018-08-19T14:00:18.628Z,47.60
2018-08-19T14:02:48.023Z,47.30
2018-08-19T14:05:16.852Z,47.50
2018-08-19T14:07:46.298Z,48.20
2018-08-19T14:10:16.235Z,47.70
2018-08-19T14:12:45.084Z,48.80
2018-08-19T14:15:13.996Z,48.20
2018-08-19T14:17:42.984Z,47.10
2018-08-19T14:20:12.182Z,48.40
2018-08-19T14:22:41.076Z,48.30
2018-08-19T14:25:11.293Z,47.20
2018-08-19T14:27:40.354Z,47.80
2018-08-19T14:30:11.244Z,48.00
2018-08-19T14:32:43.163Z,49.10
2018-08-19T14:35:12.028Z,48.80
2018-08-19T14:37:40.964Z,50.00
2018-08-19T14:40:19.036Z,50.50
2018-08-19T14:42:50.439Z,51.80
2018-08-19T14:45:19.390Z,51.50
2018-08-19T14:47:48.309Z,51.20
2018-08-19T14:50:19.256Z,50.80
2018-08-19T14:52:48.239Z,52.10
2018-08-19T14:55:23.761Z,53.10
2018-08-19T14:57:52.656Z,53.80
2018-08-19T15:00:21.454Z,52.20
2018-08-19T15:02:50.342Z,52.30
2018-08-19T15:05:20.981Z,51.60
2018-08-19T15:07:50.167Z,51.00
2018-08-19T15:10:25.108Z,50.70
2018-08-19T15:12:54.300Z,50.50
2018-08-19T15:15:23.187Z,49.70
2018-08-19T15:18:01.731Z,48.60
2018-08-19T15:20:36.031Z,45.80
2018-08-19T15:23:17.071Z,45.50
2018-08-19T15:25:46.203Z,45.20
2018-08-19T15:28:15.291Z,44.50
2018-08-19T15:30:44.216Z,44.60
2018-08-19T15:33:14.010Z,44.00
2018-08-19T15:35:43.354Z,45.30
2018-08-19T15:38:12.483Z,46.30
2018-08-19T15:40:44.648Z,47.20
2018-08-19T15:43:13.888Z,46.90
2018-08-19T15:45:43.470Z,46.90
2018-08-19T15:48:12.354Z,45.90
2018-08-19T15:50:41.273Z,46.70
2018-08-19T15:53:10.862Z,46.10
2018-08-19T15:55:40.065Z,45.10
2018-08-19T15:58:08.957Z,45.40
2018-08-19T16:00:40.339Z,45.40
2018-08-19T16:03:10.760Z,45.20
2018-08-19T16:05:39.609Z,44.60
2018-08-19T16:08:08.596Z,44.00
2018-08-19T16:10:37.387Z,43.70
2018-08-19T16:13:09.249Z,44.30
2018-08-19T16:15:38.084Z,44.60
2018-08-19T16:18:07.516Z,44.30
2018-08-19T16:20:36.402Z,45.80
2018-08-19T16:23:05.277Z,46.60
2018-08-19T16:25:34.259Z,46.30
2018-08-19T16:28:03.086Z,45.80
2018-08-19T16:30:31.891Z,45.40
2018-08-19T16:33:00.747Z,46.00
2018-08-19T16:35:29.608Z,45.90
2018-08-19T16:37:58.476Z,45.40
2018-08-19T16:40:27.339Z,44.40
2018-08-19T16:42:56.212Z,43.40
2018-08-19T16:45:25.538Z,42.00
2018-08-19T16:47:54.335Z,41.00
2018-08-19T16:50:23.363Z,39.40
2018-08-19T16:52:52.200Z,37.90
2018-08-19T16:55:21.075Z,36.90
2018-08-19T16:57:49.975Z,36.40
2018-08-19T17:00:18.877Z,35.60
2018-08-19T17:02:47.887Z,35.30
2018-08-19T17:05:33.152Z,34.80
2018-08-19T17:08:02.059Z,34.30
2018-08-19T17:10:31.103Z,34.00
2018-08-19T17:12:59.962Z,33.60
2018-08-19T17:15:29.411Z,33.20
2018-08-19T17:17:58.768Z,33.00
2018-08-19T17:20:27.759Z,32.80
2018-08-19T17:22:56.623Z,32.60
2018-08-19T17:25:25.533Z,32.40
2018-08-19T17:27:54.407Z,32.10
2018-08-19T17:30:23.269Z,32.00
2018-08-19T17:32:56.959Z,31.80
2018-08-19T17:35:25.750Z,31.70
2018-08-19T17:37:54.764Z,31.40
2018-08-19T17:40:23.816Z,31.10
2018-08-19T17:42:52.697Z,31.00
2018-08-19T17:45:21.591Z,30.80
2018-08-19T17:47:50.358Z,30.60
2018-08-19T17:50:24.769Z,30.40
2018-08-19T17:52:54.998Z,30.30
2018-08-19T17:55:24.445Z,30.10
2018-08-19T17:57:53.691Z,30.00
2018-08-19T18:00:23.025Z,29.70
2018-08-19T18:02:52.209Z,29.60
2018-08-19T18:05:21.124Z,29.50
2018-08-19T18:07:52.212Z,29.30
2018-08-19T18:10:21.057Z,29.20
2018-08-19T18:12:50.076Z,29.00
2018-08-19T18:15:18.899Z,28.80
2018-08-19T18:17:57.135Z,28.70
2018-08-19T18:20:32.431Z,28.50
2018-08-19T18:23:01.299Z,28.40
2018-08-19T18:25:30.165Z,28.20
2018-08-19T18:27:59.066Z,28.10
2018-08-19T18:30:28.566Z,27.90
2018-08-19T18:32:58.164Z,27.80
2018-08-19T18:35:27.431Z,27.60
2018-08-19T18:37:56.545Z,27.40
2018-08-19T18:40:31.695Z,27.30
2018-08-19T18:43:00.914Z,27.20
2018-08-19T18:45:31.063Z,27.10
2018-08-19T18:48:01.897Z,27.00
2018-08-19T18:50:30.802Z,27.00
2018-08-19T18:52:59.758Z,26.90
2018-08-19T18:55:28.635Z,26.80
2018-08-19T18:57:57.808Z,26.70
2018-08-19T19:00:27.632Z,26.40
2018-08-19T19:02:58.459Z,26.20
2018-08-19T19:05:36.074Z,26.20
2018-08-19T19:08:08.909Z,26.20
2018-08-19T19:10:38.499Z,26.20
2018-08-19T19:13:07.625Z,26.10
2018-08-19T19:15:39.967Z,26.10
2018-08-19T19:18:11.756Z,26.10
2018-08-19T19:20:52.678Z,26.00
2018-08-19T19:23:26.065Z,25.90
2018-08-19T19:25:55.060Z,25.90
2018-08-19T19:28:23.943Z,25.80
2018-08-19T19:31:14.174Z,25.80
2018-08-19T19:33:43.003Z,25.70
2018-08-19T19:36:16.002Z,25.60
2018-08-19T19:38:50.695Z,25.20
2018-08-19T19:41:25.916Z,25.10
2018-08-19T19:43:54.734Z,25.10
2018-08-19T19:46:25.461Z,25.10
2018-08-19T19:48:54.407Z,25.10
2018-08-19T19:51:23.508Z,25.00
2018-08-19T19:53:52.382Z,24.90
2018-08-19T19:56:21.225Z,24.90
2018-08-19T19:58:50.886Z,24.80
2018-08-19T20:01:19.686Z,24.70
2018-08-19T20:03:54.785Z,24.60
2018-08-19T20:06:24.135Z,24.50
2018-08-19T20:08:53.244Z,24.50
2018-08-19T20:11:27.275Z,24.40
2018-08-19T20:14:00.174Z,24.30
2018-08-19T20:16:29.160Z,24.20
2018-08-19T20:18:57.974Z,24.10
2018-08-19T20:21:30.562Z,24.00
2018-08-19T20:23:59.784Z,23.90
2018-08-19T20:26:28.674Z,23.90
2018-08-19T20:28:58.921Z,23.80
2018-08-19T20:31:27.999Z,23.80
2018-08-19T20:33:57.035Z,23.70
2018-08-19T20:36:26.001Z,23.60
2018-08-19T20:38:54.827Z,23.50
2018-08-19T20:41:23.714Z,23.50
2018-08-19T20:43:52.556Z,23.50
2018-08-19T20:46:21.416Z,23.40
2018-08-19T20:48:50.304Z,23.40
2018-08-19T20:51:19.138Z,23.30
2018-08-19T20:53:48.017Z,23.30
2018-08-19T20:56:16.939Z,23.20
2018-08-19T20:58:45.817Z,23.10
2018-08-19T21:01:20.108Z,23.10
2018-08-19T21:03:49.505Z,23.00
2018-08-19T21:06:18.420Z,23.00
2018-08-19T21:08:47.242Z,22.90
2018-08-19T21:11:16.098Z,22.80
2018-08-19T21:13:45.019Z,22.80
2018-08-19T21:16:13.901Z,22.70
2018-08-19T21:18:42.779Z,22.70
2018-08-19T21:21:11.751Z,22.60
2018-08-19T21:23:41.321Z,22.60
2018-08-19T21:26:10.221Z,22.50
2018-08-19T21:28:39.136Z,22.50
2018-08-19T21:31:07.996Z,22.40
2018-08-19T21:33:36.835Z,22.40
2018-08-19T21:36:05.740Z,22.40
2018-08-19T21:38:34.617Z,22.30
2018-08-19T21:41:03.452Z,22.20
2018-08-19T21:43:32.331Z,22.20
2018-08-19T21:46:01.539Z,22.10
2018-08-19T21:48:30.443Z,22.10
2018-08-19T21:50:59.331Z,22.00
2018-08-19T21:53:28.223Z,22.00
2018-08-19T21:55:57.096Z,22.00
2018-08-19T21:58:25.972Z,21.90
2018-08-19T22:00:57.276Z,21.90
2018-08-19T22:03:31.435Z,21.80
2018-08-19T22:06:00.340Z,21.80
2018-08-19T22:08:29.180Z,21.80
2018-08-19T22:10:58.092Z,21.70
2018-08-19T22:13:26.899Z,21.60
2018-08-19T22:15:55.706Z,21.50
2018-08-19T22:18:28.744Z,21.50
2018-08-19T22:21:15.311Z,21.50
2018-08-19T22:23:46.307Z,21.40
2018-08-19T22:26:16.336Z,21.50
2018-08-19T22:28:45.559Z,21.40
2018-08-19T22:31:25.625Z,21.40
2018-08-19T22:33:56.715Z,21.30
2018-08-19T22:36:25.531Z,21.30
2018-08-19T22:38:55.190Z,21.30
2018-08-19T22:41:26.419Z,21.20
2018-08-19T22:43:56.106Z,21.20
2018-08-19T22:46:25.590Z,21.20
2018-08-19T22:48:54.885Z,21.20
2018-08-19T22:51:23.824Z,21.10
2018-08-19T22:53:55.331Z,21.10
2018-08-19T22:56:24.302Z,21.00
2018-08-19T22:58:53.139Z,21.00
2018-08-19T23:01:22.447Z,20.90
2018-08-19T23:03:59.308Z,20.90
2018-08-19T23:06:28.871Z,20.90
2018-08-19T23:08:57.756Z,20.80
2018-08-19T23:11:33.347Z,20.70
2018-08-19T23:14:19.457Z,20.70
2018-08-19T23:16:48.299Z,20.60
2018-08-19T23:19:20.141Z,20.60
2018-08-19T23:21:49.000Z,20.60
2018-08-19T23:24:17.860Z,20.50
2018-08-19T23:26:46.720Z,20.50
2018-08-19T23:29:15.559Z,20.40
2018-08-19T23:31:44.446Z,20.40
2018-08-19T23:34:13.271Z,20.40
2018-08-19T23:36:42.144Z,20.20
2018-08-19T23:39:11.180Z,20.10
2018-08-19T23:41:40.020Z,20.10
2018-08-19T23:44:09.271Z,20.10
2018-08-19T23:46:41.098Z,20.10
2018-08-19T23:49:09.907Z,20.10
2018-08-19T23:51:38.786Z,20.10
2018-08-19T23:54:07.656Z,20.10
2018-08-19T23:56:36.487Z,20.20
2018-08-19T23:59:05.342Z,20.10
